createdAt,value
2018-09-18T00:00:02.311Z,580
2018-09-18T00:01:04.465Z,580
2018-09-18T00:02:06.901Z,580.3
2018-09-18T00:03:09.340Z,580.4
2018-09-18T00:04:11.767Z,580.3
2018-09-18T00:05:13.935Z,580.3
2018-09-18T00:06:16.421Z,580.4
2018-09-18T00:07:18.836Z,580.1
2018-09-18T00:08:21.277Z,580.7
2018-09-18T00:09:23.711Z,580.5
2018-09-18T00:10:25.867Z,580.4
2018-09-18T00:11:28.031Z,580.7
2018-09-18T00:12:30.455Z,580.6
2018-09-18T00:13:32.895Z,580.9
2018-09-18T00:14:35.326Z,581.1
2018-09-18T00:15:37.766Z,581
2018-09-18T00:16:40.197Z,580.8
2018-09-18T00:17:42.622Z,581.4
2018-09-18T00:18:45.056Z,581.1
2018-09-18T00:19:47.494Z,581
2018-09-18T00:20:49.936Z,581.8
2018-09-18T00:21:52.367Z,581.6
2018-09-18T00:22:54.526Z,582
2018-09-18T00:23:56.967Z,581.8
2018-09-18T00:24:59.137Z,582.1
2018-09-18T00:26:01.297Z,582.2
2018-09-18T00:27:03.467Z,582.3
2018-09-18T00:28:05.627Z,582.2
2018-09-18T00:29:08.066Z,582.5
2018-09-18T00:30:10.504Z,582.7
2018-09-18T00:31:12.925Z,582.7
2018-09-18T00:32:15.356Z,582.9
2018-09-18T00:33:17.797Z,583.2
2018-09-18T00:34:19.948Z,583.4
2018-09-18T00:35:22.386Z,583.1
2018-09-18T00:36:24.536Z,583.3
2018-09-18T00:37:26.974Z,583.1
2018-09-18T00:38:29.416Z,583.5
2018-09-18T00:39:31.855Z,583.8
2018-09-18T00:40:34.286Z,583.5
2018-09-18T00:41:36.717Z,584.2
2018-09-18T00:42:39.166Z,583.6
2018-09-18T00:43:41.601Z,583.9
2018-09-18T00:44:44.033Z,584
2018-09-18T00:45:46.465Z,583.9
2018-09-18T00:46:48.897Z,583.5
2018-09-18T00:47:51.059Z,583.7
2018-09-18T00:48:53.484Z,583.8
2018-09-18T00:49:55.911Z,583.9
2018-09-18T00:50:58.335Z,583.6
2018-09-18T00:52:00.800Z,583.7
2018-09-18T00:53:03.239Z,583.7
2018-09-18T00:54:05.667Z,583.3
2018-09-18T00:55:08.106Z,583.3
2018-09-18T00:56:10.532Z,582.9
2018-09-18T00:57:12.956Z,582.8
2018-09-18T00:58:15.378Z,582.8
2018-09-18T00:59:17.822Z,582.8
2018-09-18T01:00:20.254Z,582.9
2018-09-18T01:01:22.689Z,582.7
2018-09-18T01:02:24.833Z,583
2018-09-18T01:03:27.264Z,582.5
2018-09-18T01:04:29.694Z,582.9
2018-09-18T01:05:32.123Z,583
2018-09-18T01:06:34.289Z,582.9
2018-09-18T01:07:36.721Z,582.8
2018-09-18T01:08:38.864Z,582.6
2018-09-18T01:09:41.309Z,582.8
2018-09-18T01:10:43.736Z,582.6
2018-09-18T01:11:46.161Z,582.8
2018-09-18T01:12:48.593Z,582.7
2018-09-18T01:13:51.040Z,582.7
2018-09-18T01:14:53.204Z,582.6
2018-09-18T01:15:55.639Z,582.6
2018-09-18T01:16:58.066Z,582.7
2018-09-18T01:18:00.497Z,582.2
2018-09-18T01:19:02.919Z,582.6
2018-09-18T01:20:05.346Z,581.9
2018-09-18T01:21:07.798Z,581.8
2018-09-18T01:22:10.230Z,581.8
2018-09-18T01:23:12.393Z,582
2018-09-18T01:24:14.825Z,582
2018-09-18T01:25:17.247Z,582
2018-09-18T01:26:19.687Z,582
2018-09-18T01:27:22.114Z,581.7
2018-09-18T01:28:24.534Z,582.4
2018-09-18T01:29:26.965Z,582.1
2018-09-18T01:30:29.395Z,582.2
2018-09-18T01:31:31.824Z,582
2018-09-18T01:32:34.256Z,582
2018-09-18T01:33:36.407Z,581.8
2018-09-18T01:34:38.847Z,582.3
2018-09-18T01:35:41.271Z,582.2
2018-09-18T01:36:43.714Z,581.8
2018-09-18T01:37:46.146Z,581.7
2018-09-18T01:38:48.573Z,581.6
2018-09-18T01:39:51.010Z,581.3
2018-09-18T01:40:53.436Z,581.3
2018-09-18T01:41:55.863Z,581
2018-09-18T01:42:58.306Z,581.1
2018-09-18T01:44:00.737Z,581.1
2018-09-18T01:45:03.171Z,581.2
2018-09-18T01:46:05.605Z,581.1
2018-09-18T01:47:08.035Z,581.4
2018-09-18T01:48:10.454Z,581.3
2018-09-18T01:49:12.886Z,581.6
2018-09-18T01:50:15.313Z,581.4
2018-09-18T01:51:17.797Z,581.5
2018-09-18T01:52:20.211Z,581.9
2018-09-18T01:53:22.650Z,581.7
2018-09-18T01:54:25.076Z,581.6
2018-09-18T01:55:27.515Z,581.6
2018-09-18T01:56:29.947Z,581.7
2018-09-18T01:57:32.376Z,581.8
2018-09-18T01:58:34.805Z,581.9
2018-09-18T01:59:36.944Z,581.6
2018-09-18T02:00:39.366Z,581.4
2018-09-18T02:01:41.801Z,581.3
2018-09-18T02:02:44.233Z,581.1
2018-09-18T02:03:46.665Z,581.3
2018-09-18T02:04:49.095Z,581
2018-09-18T02:05:51.538Z,581.6
2018-09-18T02:06:53.971Z,581.2
2018-09-18T02:07:56.412Z,581
2018-09-18T02:08:58.848Z,581.3
2018-09-18T02:10:01.005Z,581.7
2018-09-18T02:11:03.438Z,581.4
2018-09-18T02:12:05.866Z,581.7
2018-09-18T02:13:08.295Z,581.6
2018-09-18T02:14:10.740Z,581.7
2018-09-18T02:15:13.170Z,581.9
2018-09-18T02:16:15.342Z,581.8
2018-09-18T02:17:17.774Z,582.2
2018-09-18T02:18:19.928Z,581.8
2018-09-18T02:19:22.353Z,582.4
2018-09-18T02:20:24.504Z,582.3
2018-09-18T02:21:26.937Z,582
2018-09-18T02:22:29.374Z,582
2018-09-18T02:23:31.804Z,581.9
2018-09-18T02:24:33.953Z,582
2018-09-18T02:25:36.139Z,581.9
2018-09-18T02:26:38.025Z,581.7
2018-09-18T02:27:40.455Z,582.4
2018-09-18T02:28:42.606Z,582.2
2018-09-18T02:29:45.047Z,582.4
2018-09-18T02:30:47.473Z,582.4
2018-09-18T02:31:49.907Z,582.6
2018-09-18T02:32:52.347Z,582.3
2018-09-18T02:33:54.776Z,582.2
2018-09-18T02:34:57.229Z,582.6
2018-09-18T02:35:59.660Z,582.5
2018-09-18T02:37:01.834Z,582.8
2018-09-18T02:38:04.269Z,583
2018-09-18T02:39:06.715Z,583
2018-09-18T02:40:08.863Z,582.7
2018-09-18T02:41:11.295Z,582.8
2018-09-18T02:42:13.467Z,583.4
2018-09-18T02:43:15.904Z,582.8
2018-09-18T02:44:18.343Z,582.7
2018-09-18T02:45:20.774Z,582.6
2018-09-18T02:46:23.204Z,582.6
2018-09-18T02:47:25.649Z,582.5
2018-09-18T02:48:28.077Z,582.3
2018-09-18T02:49:30.531Z,582.6
2018-09-18T02:50:32.962Z,582.6
2018-09-18T02:51:35.429Z,582.5
2018-09-18T02:52:37.853Z,582.5
2018-09-18T02:53:40.286Z,582.5
2018-09-18T02:54:42.416Z,582.9
2018-09-18T02:55:44.851Z,583.1
2018-09-18T02:56:47.007Z,583
2018-09-18T02:57:49.444Z,582.9
2018-09-18T02:58:51.869Z,583.2
2018-09-18T02:59:54.292Z,583.5
2018-09-18T03:00:56.717Z,583.2
2018-09-18T03:01:59.145Z,583.1
2018-09-18T03:03:01.574Z,583.3
2018-09-18T03:04:04.004Z,582.7
2018-09-18T03:05:06.436Z,582.7
2018-09-18T03:06:08.861Z,582.7
2018-09-18T03:07:11.016Z,582.3
2018-09-18T03:08:13.210Z,582.6
2018-09-18T03:09:15.652Z,582.3
2018-09-18T03:10:18.082Z,582.7
2018-09-18T03:11:21.116Z,582.2
2018-09-18T03:12:23.552Z,582
2018-09-18T03:13:25.976Z,582.1
2018-09-18T03:14:28.404Z,582
2018-09-18T03:15:30.832Z,581.9
2018-09-18T03:16:33.271Z,582
2018-09-18T03:17:35.698Z,582
2018-09-18T03:18:38.127Z,581.2
2018-09-18T03:19:40.575Z,581.7
2018-09-18T03:20:42.742Z,581.7
2018-09-18T03:21:45.165Z,581.7
2018-09-18T03:22:47.597Z,581.9
2018-09-18T03:23:50.036Z,581.7
2018-09-18T03:24:52.477Z,581.5
2018-09-18T03:25:54.910Z,581.6
2018-09-18T03:26:57.077Z,581.9
2018-09-18T03:27:59.237Z,582.1
2018-09-18T03:29:01.666Z,582.1
2018-09-18T03:30:03.534Z,582
2018-09-18T03:31:05.968Z,582.3
2018-09-18T03:32:08.393Z,582
2018-09-18T03:33:10.823Z,581.8
2018-09-18T03:34:13.271Z,581.9
2018-09-18T03:35:15.703Z,581.7
2018-09-18T03:36:18.130Z,581.7
2018-09-18T03:37:20.298Z,581.7
2018-09-18T03:38:22.474Z,581.7
2018-09-18T03:39:24.916Z,581.7
2018-09-18T03:40:27.342Z,581.5
2018-09-18T03:41:29.765Z,581.5
2018-09-18T03:42:31.992Z,581.9
2018-09-18T03:43:34.441Z,581.9
2018-09-18T03:44:36.882Z,581.2
2018-09-18T03:45:39.347Z,581.5
2018-09-18T03:46:41.798Z,581.3
2018-09-18T03:47:44.236Z,581.2
2018-09-18T03:48:46.658Z,581.2
2018-09-18T03:49:49.097Z,581.4
2018-09-18T03:50:51.546Z,581.2
2018-09-18T03:51:53.979Z,581.2
2018-09-18T03:52:56.707Z,581.6
2018-09-18T03:53:59.173Z,581.7
2018-09-18T03:55:01.608Z,581.6
2018-09-18T03:56:04.048Z,581.9
2018-09-18T03:57:06.217Z,581.3
2018-09-18T03:58:08.658Z,581.4
2018-09-18T03:59:11.127Z,581.4
2018-09-18T04:00:13.557Z,581.3
2018-09-18T04:01:15.720Z,581.3
2018-09-18T04:02:18.162Z,581.6
2018-09-18T04:03:20.606Z,581.7
2018-09-18T04:04:22.780Z,581.9
2018-09-18T04:05:25.236Z,582
2018-09-18T04:06:27.708Z,581.7
2018-09-18T04:07:29.847Z,581.8
2018-09-18T04:08:32.022Z,582.1
2018-09-18T04:09:34.457Z,582.2
2018-09-18T04:10:36.893Z,582.3
2018-09-18T04:11:39.315Z,582.3
2018-09-18T04:12:41.745Z,581.9
2018-09-18T04:13:43.895Z,581.8
2018-09-18T04:14:46.327Z,582
2018-09-18T04:15:48.758Z,581.7
2018-09-18T04:16:50.918Z,581.6
2018-09-18T04:17:53.344Z,582.1
2018-09-18T04:18:55.775Z,581.4
2018-09-18T04:19:58.227Z,581.5
2018-09-18T04:21:00.660Z,581.4
2018-09-18T04:22:02.835Z,581.6
2018-09-18T04:23:05.273Z,581.7
2018-09-18T04:24:07.704Z,581.7
2018-09-18T04:25:09.840Z,581.4
2018-09-18T04:26:12.276Z,581.2
2018-09-18T04:27:14.706Z,581.4
2018-09-18T04:28:17.143Z,580.8
2018-09-18T04:29:19.561Z,581.1
2018-09-18T04:30:21.996Z,581
2018-09-18T04:31:24.168Z,580.9
2018-09-18T04:32:26.603Z,581
2018-09-18T04:33:28.490Z,581
2018-09-18T04:34:30.646Z,580.8
2018-09-18T04:35:33.083Z,580.6
2018-09-18T04:36:35.524Z,580.2
2018-09-18T04:37:37.948Z,580
2018-09-18T04:38:40.075Z,580
2018-09-18T04:39:42.537Z,579.8
2018-09-18T04:40:45.003Z,579.9
2018-09-18T04:41:47.452Z,580
2018-09-18T04:42:49.882Z,579.4
2018-09-18T04:43:52.322Z,579.8
2018-09-18T04:44:54.481Z,579.7
2018-09-18T04:45:57.354Z,580
2018-09-18T04:46:59.848Z,579.6
2018-09-18T04:48:02.400Z,579.2
2018-09-18T04:49:04.787Z,579.2
2018-09-18T04:50:07.301Z,579.5
2018-09-18T04:51:09.763Z,579.1
2018-09-18T04:52:12.186Z,579.1
2018-09-18T04:53:14.614Z,578.9
2018-09-18T04:54:17.040Z,579.4
2018-09-18T04:55:19.473Z,579.6
2018-09-18T04:56:21.918Z,579.1
2018-09-18T04:57:24.347Z,579.1
2018-09-18T04:58:26.770Z,579
2018-09-18T04:59:28.970Z,579
2018-09-18T05:00:31.403Z,579.2
2018-09-18T05:01:33.823Z,578.8
2018-09-18T05:02:36.259Z,578.8
2018-09-18T05:03:38.684Z,578.8
2018-09-18T05:04:41.123Z,579
2018-09-18T05:05:43.302Z,579.2
2018-09-18T05:06:45.453Z,579.3
2018-09-18T05:07:47.902Z,579.2
2018-09-18T05:08:50.330Z,579.3
2018-09-18T05:09:52.767Z,579.2
2018-09-18T05:10:55.197Z,578.9
2018-09-18T05:11:57.628Z,579.1
2018-09-18T05:13:00.055Z,579.2
2018-09-18T05:14:02.415Z,578.9
2018-09-18T05:15:04.638Z,578.8
2018-09-18T05:16:07.074Z,578.5
2018-09-18T05:17:09.208Z,578.6
2018-09-18T05:18:11.640Z,578.5
2018-09-18T05:19:14.082Z,578.4
2018-09-18T05:20:16.517Z,578.6
2018-09-18T05:21:18.962Z,578.8
2018-09-18T05:22:21.119Z,578.5
2018-09-18T05:23:23.563Z,578.6
2018-09-18T05:24:25.992Z,578
2018-09-18T05:25:28.608Z,578.3
2018-09-18T05:26:31.034Z,578.2
2018-09-18T05:27:33.204Z,578.3
2018-09-18T05:28:35.637Z,577.7
2018-09-18T05:29:38.061Z,577.7
2018-09-18T05:30:40.507Z,578
2018-09-18T05:31:42.673Z,577.8
2018-09-18T05:32:45.101Z,578.1
2018-09-18T05:33:48.079Z,577.9
2018-09-18T05:34:50.500Z,578.1
2018-09-18T05:35:52.935Z,577.8
2018-09-18T05:36:55.358Z,577.9
2018-09-18T05:37:57.790Z,577.6
2018-09-18T05:39:00.240Z,577.6
2018-09-18T05:40:02.674Z,577.7
2018-09-18T05:41:05.114Z,577.5
2018-09-18T05:42:08.132Z,577.5
2018-09-18T05:43:10.650Z,577.5
2018-09-18T05:44:13.077Z,577.5
2018-09-18T05:45:15.500Z,577.4
2018-09-18T05:46:17.938Z,577.2
2018-09-18T05:47:20.387Z,577.5
2018-09-18T05:48:22.821Z,577.5
2018-09-18T05:49:25.259Z,577.2
2018-09-18T05:50:27.730Z,577.1
2018-09-18T05:51:29.885Z,577.3
2018-09-18T05:52:32.307Z,577
2018-09-18T05:53:34.741Z,577.5
2018-09-18T05:54:37.179Z,577
2018-09-18T05:55:39.605Z,576.3
2018-09-18T05:56:42.046Z,576.3
2018-09-18T05:57:44.487Z,576.4
2018-09-18T05:58:46.625Z,575.8
2018-09-18T05:59:49.053Z,576.1
2018-09-18T06:00:51.502Z,576
2018-09-18T06:01:53.956Z,576.1
2018-09-18T06:02:56.390Z,576.3
2018-09-18T06:03:58.546Z,576
2018-09-18T06:05:00.980Z,575.9
2018-09-18T06:06:03.404Z,575.8
2018-09-18T06:07:06.323Z,576
2018-09-18T06:08:08.202Z,576.2
2018-09-18T06:09:10.638Z,575.6
2018-09-18T06:10:13.073Z,576.1
2018-09-18T06:11:15.505Z,575.8
2018-09-18T06:12:17.944Z,575.9
2018-09-18T06:13:20.367Z,576
2018-09-18T06:14:22.820Z,575.6
2018-09-18T06:15:25.014Z,575.7
2018-09-18T06:16:27.449Z,576
2018-09-18T06:17:29.887Z,575.8
2018-09-18T06:18:32.316Z,575.7
2018-09-18T06:19:34.777Z,575.6
2018-09-18T06:20:37.202Z,575.8
2018-09-18T06:21:39.628Z,575.5
2018-09-18T06:22:42.051Z,575.6
2018-09-18T06:23:44.485Z,575.8
2018-09-18T06:24:46.638Z,575.7
2018-09-18T06:25:49.067Z,575.5
2018-09-18T06:26:51.496Z,575.6
2018-09-18T06:27:53.922Z,575.9
2018-09-18T06:28:56.346Z,576
2018-09-18T06:29:58.776Z,575.7
2018-09-18T06:31:00.935Z,575.8
2018-09-18T06:32:03.368Z,575.4
2018-09-18T06:33:05.797Z,575.4
2018-09-18T06:34:07.977Z,575.3
2018-09-18T06:35:10.407Z,575.2
2018-09-18T06:36:12.849Z,575.2
2018-09-18T06:37:15.005Z,575.1
2018-09-18T06:38:17.429Z,575
2018-09-18T06:39:19.864Z,575.2
2018-09-18T06:40:22.285Z,575.2
2018-09-18T06:41:24.731Z,575.3
2018-09-18T06:42:27.776Z,574.8
2018-09-18T06:43:30.281Z,574.9
2018-09-18T06:44:32.752Z,574.7
2018-09-18T06:45:35.211Z,575
2018-09-18T06:46:37.652Z,574.7
2018-09-18T06:47:39.856Z,574.6
2018-09-18T06:48:42.303Z,574.1
2018-09-18T06:49:44.733Z,574.2
2018-09-18T06:50:47.157Z,574.1
2018-09-18T06:51:49.581Z,574
2018-09-18T06:52:52.005Z,574.1
2018-09-18T06:53:54.432Z,574.1
2018-09-18T06:54:56.859Z,574.1
2018-09-18T06:55:59.027Z,573.9
2018-09-18T06:57:01.456Z,574.1
2018-09-18T06:58:03.885Z,573.8
2018-09-18T06:59:06.317Z,574
2018-09-18T07:00:08.751Z,573.7
2018-09-18T07:01:11.185Z,574.1
2018-09-18T07:02:13.642Z,573.5
2018-09-18T07:03:16.072Z,574.1
2018-09-18T07:04:18.505Z,573.6
2018-09-18T07:05:20.927Z,573.8
2018-09-18T07:06:23.397Z,574.2
2018-09-18T07:07:25.836Z,573.9
2018-09-18T07:08:28.266Z,573.8
2018-09-18T07:09:30.697Z,573.7
2018-09-18T07:10:33.135Z,573.9
2018-09-18T07:11:35.573Z,573.7
2018-09-18T07:12:38.004Z,573.9
2018-09-18T07:13:40.429Z,574
2018-09-18T07:14:42.854Z,573.8
2018-09-18T07:15:45.285Z,574
2018-09-18T07:16:47.711Z,573.6
2018-09-18T07:17:50.175Z,573.5
2018-09-18T07:18:52.606Z,573.8
2018-09-18T07:19:55.040Z,574
2018-09-18T07:20:57.187Z,573.9
2018-09-18T07:21:59.631Z,574.1
2018-09-18T07:23:02.067Z,573.7
2018-09-18T07:24:04.497Z,573.9
2018-09-18T07:25:06.971Z,573.3
2018-09-18T07:26:09.402Z,573.9
2018-09-18T07:27:11.832Z,574.3
2018-09-18T07:28:14.264Z,574.2
2018-09-18T07:29:16.529Z,574.4
2018-09-18T07:30:18.956Z,574
2018-09-18T07:31:21.394Z,574.5
2018-09-18T07:32:23.288Z,574.3
2018-09-18T07:33:25.724Z,574.6
2018-09-18T07:34:28.154Z,574.4
2018-09-18T07:35:30.596Z,574.6
2018-09-18T07:36:33.041Z,574.4
2018-09-18T07:37:35.490Z,574.2
2018-09-18T07:38:38.019Z,574.5
2018-09-18T07:39:40.484Z,574.4
2018-09-18T07:40:42.945Z,574.3
2018-09-18T07:41:45.423Z,574.1
2018-09-18T07:42:47.838Z,574.5
2018-09-18T07:43:50.258Z,573.9
2018-09-18T07:44:52.688Z,573.8
2018-09-18T07:45:55.107Z,573.8
2018-09-18T07:46:57.547Z,573.8
2018-09-18T07:47:59.975Z,574
2018-09-18T07:49:02.406Z,573.7
2018-09-18T07:50:04.839Z,573.6
2018-09-18T07:51:07.269Z,573.8
2018-09-18T07:52:09.483Z,573.3
2018-09-18T07:53:11.927Z,573.5
2018-09-18T07:54:14.357Z,573.5
2018-09-18T07:55:16.795Z,573.5
2018-09-18T07:56:18.935Z,573.8
2018-09-18T07:57:21.364Z,573.6
2018-09-18T07:58:23.813Z,573.5
2018-09-18T07:59:26.253Z,574.1
2018-09-18T08:00:28.678Z,573.9
2018-09-18T08:01:31.121Z,574
2018-09-18T08:02:33.553Z,573.9
2018-09-18T08:03:35.977Z,574
2018-09-18T08:04:38.130Z,573.8
2018-09-18T08:05:40.547Z,573.8
2018-09-18T08:06:42.976Z,573.8
2018-09-18T08:07:45.406Z,573.6
2018-09-18T08:08:47.838Z,573.8
2018-09-18T08:09:50.270Z,573.8
2018-09-18T08:10:53.034Z,573.9
2018-09-18T08:11:55.327Z,574
2018-09-18T08:12:57.755Z,573.8
2018-09-18T08:14:00.195Z,573.7
2018-09-18T08:15:02.626Z,573.6
2018-09-18T08:16:04.784Z,573.2
2018-09-18T08:17:07.229Z,573.8
2018-09-18T08:18:09.651Z,573.9
2018-09-18T08:19:12.489Z,573.3
2018-09-18T08:20:14.987Z,573.3
2018-09-18T08:21:17.431Z,573.6
2018-09-18T08:22:19.870Z,573.3
2018-09-18T08:23:22.316Z,573.6
2018-09-18T08:24:24.741Z,573.2
2018-09-18T08:25:27.422Z,573.4
2018-09-18T08:26:29.841Z,573.3
2018-09-18T08:27:32.268Z,573.4
2018-09-18T08:28:34.694Z,573.3
2018-09-18T08:29:36.845Z,573.2
2018-09-18T08:30:39.029Z,572.9
2018-09-18T08:31:41.463Z,573.2
2018-09-18T08:32:44.790Z,572.7
2018-09-18T08:33:47.216Z,572.9
2018-09-18T08:34:49.385Z,573.2
2018-09-18T08:35:51.813Z,572.9
2018-09-18T08:36:54.262Z,573
2018-09-18T08:37:56.705Z,572.9
2018-09-18T08:38:59.205Z,573.1
2018-09-18T08:40:02.602Z,573.1
2018-09-18T08:41:05.089Z,572.8
2018-09-18T08:42:07.514Z,573.2
2018-09-18T08:43:10.099Z,573
2018-09-18T08:44:12.531Z,572.9
2018-09-18T08:45:15.003Z,572.9
2018-09-18T08:46:17.858Z,572.6
2018-09-18T08:47:20.378Z,573
2018-09-18T08:48:22.565Z,572.7
2018-09-18T08:49:25.035Z,572.7
2018-09-18T08:50:27.477Z,572.6
2018-09-18T08:51:29.953Z,572.5
2018-09-18T08:52:32.127Z,572.5
2018-09-18T08:53:34.567Z,572.4
2018-09-18T08:54:37.304Z,572.1
2018-09-18T08:55:39.748Z,572.2
2018-09-18T08:56:42.191Z,572
2018-09-18T08:57:44.639Z,572.2
2018-09-18T08:58:47.075Z,572.5
2018-09-18T08:59:49.510Z,572.4
2018-09-18T09:00:51.936Z,572.3
2018-09-18T09:01:54.903Z,572.4
2018-09-18T09:02:57.369Z,572.9
2018-09-18T09:04:00.134Z,572.9
2018-09-18T09:05:02.615Z,572.9
2018-09-18T09:06:05.195Z,572.9
2018-09-18T09:07:07.453Z,573.1
2018-09-18T09:08:11.118Z,573
2018-09-18T09:09:14.148Z,572.9
2018-09-18T09:10:16.892Z,573
2018-09-18T09:11:19.365Z,573.3
2018-09-18T09:12:21.858Z,573
2018-09-18T09:13:24.306Z,573.2
2018-09-18T09:14:27.144Z,572.8
2018-09-18T09:15:29.941Z,572.8
2018-09-18T09:16:32.405Z,572.8
2018-09-18T09:17:34.974Z,572.7
2018-09-18T09:18:38.273Z,573
2018-09-18T09:19:40.495Z,572.9
2018-09-18T09:20:42.950Z,572.9
2018-09-18T09:21:46.077Z,573.1
2018-09-18T09:22:49.410Z,573.2
2018-09-18T09:23:51.960Z,572.8
2018-09-18T09:24:54.385Z,572.9
2018-09-18T09:25:56.909Z,573.1
2018-09-18T09:26:59.894Z,573.2
2018-09-18T09:28:02.762Z,572.8
2018-09-18T09:29:05.059Z,572.9
2018-09-18T09:30:08.053Z,573.2
2018-09-18T09:31:10.297Z,573.2
2018-09-18T09:32:13.323Z,573.1
2018-09-18T09:33:15.929Z,573
2018-09-18T09:34:18.386Z,572.7
2018-09-18T09:35:20.834Z,573.3
2018-09-18T09:36:23.295Z,573.4
2018-09-18T09:37:25.732Z,573.2
2018-09-18T09:38:28.170Z,573.8
2018-09-18T09:39:30.604Z,573.5
2018-09-18T09:40:33.037Z,573.6
2018-09-18T09:41:35.208Z,573.5
2018-09-18T09:42:37.654Z,573.9
2018-09-18T09:43:40.380Z,573.9
2018-09-18T09:44:42.806Z,574.2
2018-09-18T09:45:45.238Z,574
2018-09-18T09:46:47.675Z,574.1
2018-09-18T09:47:50.139Z,574.1
2018-09-18T09:48:52.559Z,574.4
2018-09-18T09:49:54.992Z,574.2
2018-09-18T09:50:57.425Z,574.3
2018-09-18T09:51:59.867Z,574.3
2018-09-18T09:53:02.304Z,574.6
2018-09-18T09:54:04.458Z,574.3
2018-09-18T09:55:06.888Z,574.2
2018-09-18T09:56:09.098Z,574.1
2018-09-18T09:57:11.529Z,574.4
2018-09-18T09:58:13.958Z,574.2
2018-09-18T09:59:16.386Z,574.4
2018-09-18T10:00:18.828Z,574.3
2018-09-18T10:01:21.267Z,574.3
2018-09-18T10:02:23.697Z,574.6
2018-09-18T10:03:26.128Z,574.6
2018-09-18T10:04:28.569Z,574.8
2018-09-18T10:05:30.726Z,574.8
2018-09-18T10:06:33.153Z,575
2018-09-18T10:07:35.578Z,574.9
2018-09-18T10:08:38.012Z,574.8
2018-09-18T10:09:40.447Z,575
2018-09-18T10:10:43.562Z,575.1
2018-09-18T10:11:45.729Z,574.8
2018-09-18T10:12:48.153Z,574.7
2018-09-18T10:13:50.576Z,574.7
2018-09-18T10:14:52.782Z,574.4
2018-09-18T10:15:55.190Z,574.6
2018-09-18T10:16:57.641Z,574.7
2018-09-18T10:18:00.829Z,574.1
2018-09-18T10:19:02.794Z,574.3
2018-09-18T10:20:05.219Z,574.2
2018-09-18T10:21:07.644Z,574.1
2018-09-18T10:22:10.074Z,574.3
2018-09-18T10:23:12.527Z,574.3
2018-09-18T10:24:14.414Z,574.4
2018-09-18T10:25:17.331Z,574.5
2018-09-18T10:26:20.893Z,574.7
2018-09-18T10:27:23.448Z,574.5
2018-09-18T10:28:25.878Z,574.3
2018-09-18T10:29:28.379Z,574.8
2018-09-18T10:30:30.549Z,574.3
2018-09-18T10:31:33.011Z,574.3
2018-09-18T10:32:35.721Z,574.6
2018-09-18T10:33:38.162Z,574.6
2018-09-18T10:34:40.598Z,574.8
2018-09-18T10:35:43.063Z,575.2
2018-09-18T10:36:45.495Z,574.8
2018-09-18T10:37:47.933Z,574.8
2018-09-18T10:38:50.118Z,574.6
2018-09-18T10:39:52.573Z,575
2018-09-18T10:40:56.022Z,575.3
2018-09-18T10:41:59.274Z,575.5
2018-09-18T10:43:02.297Z,575.5
2018-09-18T10:44:04.826Z,575.8
2018-09-18T10:45:07.287Z,575.8
2018-09-18T10:46:09.731Z,576
2018-09-18T10:47:11.922Z,576.1
2018-09-18T10:48:14.380Z,576.1
2018-09-18T10:49:16.955Z,576.3
2018-09-18T10:50:19.395Z,576
2018-09-18T10:51:21.825Z,576.4
2018-09-18T10:52:24.386Z,576.4
2018-09-18T10:53:26.810Z,576.2
2018-09-18T10:54:28.984Z,576.3
2018-09-18T10:55:31.698Z,576.5
2018-09-18T10:56:34.228Z,576.3
2018-09-18T10:57:36.668Z,576.6
2018-09-18T10:58:39.107Z,576.7
2018-09-18T10:59:41.287Z,576.5
2018-09-18T11:00:43.710Z,576.6
2018-09-18T11:01:46.409Z,576.9
2018-09-18T11:02:48.935Z,576.6
2018-09-18T11:03:51.399Z,576.8
2018-09-18T11:04:53.849Z,576.1
2018-09-18T11:05:56.326Z,576.4
2018-09-18T11:06:59.377Z,576.3
2018-09-18T11:08:01.930Z,576.1
2018-09-18T11:09:04.362Z,576.1
2018-09-18T11:10:06.665Z,576
2018-09-18T11:11:09.293Z,576.1
2018-09-18T11:12:11.739Z,576
2018-09-18T11:13:14.489Z,576.5
2018-09-18T11:14:18.105Z,576
2018-09-18T11:15:21.185Z,576.5
2018-09-18T11:16:23.725Z,576.4
2018-09-18T11:17:25.900Z,576.5
2018-09-18T11:18:28.540Z,576.5
2018-09-18T11:19:30.707Z,576.5
2018-09-18T11:20:33.195Z,576.3
2018-09-18T11:21:36.401Z,576.2
2018-09-18T11:22:38.938Z,576.6
2018-09-18T11:23:41.961Z,576.4
2018-09-18T11:24:44.693Z,576.3
2018-09-18T11:25:46.889Z,576.3
2018-09-18T11:26:49.380Z,576.3
2018-09-18T11:27:51.847Z,577.1
2018-09-18T11:28:54.307Z,576.9
2018-09-18T11:29:56.779Z,577.1
2018-09-18T11:30:59.224Z,577.3
2018-09-18T11:32:01.745Z,577.3
2018-09-18T11:33:04.491Z,577.3
2018-09-18T11:34:07.068Z,577.7
2018-09-18T11:35:09.570Z,577.9
2018-09-18T11:36:12.009Z,577.9
2018-09-18T11:37:14.444Z,577.8
2018-09-18T11:38:16.892Z,577.8
2018-09-18T11:39:19.326Z,578.1
2018-09-18T11:40:21.758Z,578.3
2018-09-18T11:41:24.198Z,578.1
2018-09-18T11:42:26.628Z,578.4
2018-09-18T11:43:29.060Z,578.3
2018-09-18T11:44:31.489Z,578.2
2018-09-18T11:45:34.332Z,578.5
2018-09-18T11:46:37.086Z,578.2
2018-09-18T11:47:39.278Z,578.4
2018-09-18T11:48:41.721Z,578.6
2018-09-18T11:49:44.146Z,578.3
2018-09-18T11:50:46.591Z,578.8
2018-09-18T11:51:49.013Z,578.9
2018-09-18T11:52:51.960Z,578.9
2018-09-18T11:53:54.417Z,578.5
2018-09-18T11:54:56.850Z,578.4
2018-09-18T11:55:59.273Z,578.7
2018-09-18T11:57:01.941Z,579
2018-09-18T11:58:04.371Z,579.2
2018-09-18T11:59:06.810Z,579.3
2018-09-18T12:00:09.234Z,579.1
2018-09-18T12:01:11.679Z,579.3
2018-09-18T12:02:14.115Z,579.2
2018-09-18T12:03:16.740Z,579.1
2018-09-18T12:04:19.280Z,578.9
2018-09-18T12:05:21.436Z,579.4
2018-09-18T12:06:23.875Z,578.8
2018-09-18T12:07:26.028Z,578.9
2018-09-18T12:08:28.456Z,578.9
2018-09-18T12:09:30.897Z,579
2018-09-18T12:10:33.339Z,578.6
2018-09-18T12:11:36.237Z,579.3
2018-09-18T12:12:38.401Z,579.3
2018-09-18T12:13:40.829Z,579.4
2018-09-18T12:14:43.252Z,579.8
2018-09-18T12:15:45.719Z,579.7
2018-09-18T12:16:48.349Z,579.9
2018-09-18T12:17:50.782Z,580.1
2018-09-18T12:18:53.219Z,580.1
2018-09-18T12:19:55.651Z,579.9
2018-09-18T12:20:57.829Z,580
2018-09-18T12:22:00.248Z,579.8
2018-09-18T12:23:02.678Z,580.2
2018-09-18T12:24:05.118Z,580.2
2018-09-18T12:25:07.550Z,579.9
2018-09-18T12:26:09.988Z,580
2018-09-18T12:27:12.430Z,580
2018-09-18T12:28:14.859Z,580.4
2018-09-18T12:29:17.300Z,580.1
2018-09-18T12:30:19.731Z,580.1
2018-09-18T12:31:22.164Z,580.5
2018-09-18T12:32:24.607Z,580.2
2018-09-18T12:33:26.780Z,580.1
2018-09-18T12:34:29.218Z,580.2
2018-09-18T12:35:32.637Z,580.8
2018-09-18T12:36:35.207Z,580.4
2018-09-18T12:37:37.638Z,581
2018-09-18T12:38:40.085Z,581.1
2018-09-18T12:39:42.246Z,580.9
2018-09-18T12:40:44.691Z,581.4
2018-09-18T12:41:47.639Z,581.2
2018-09-18T12:42:50.740Z,581.7
2018-09-18T12:43:53.233Z,581.7
2018-09-18T12:44:55.670Z,581.5
2018-09-18T12:45:58.106Z,581.8
2018-09-18T12:47:00.547Z,581.6
2018-09-18T12:48:03.084Z,581.6
2018-09-18T12:49:06.176Z,581.7
2018-09-18T12:50:09.787Z,581.8
2018-09-18T12:51:12.361Z,582.1
2018-09-18T12:52:14.789Z,582.1
2018-09-18T12:53:17.217Z,582.4
2018-09-18T12:54:19.643Z,582.4
2018-09-18T12:55:21.809Z,582.2
2018-09-18T12:56:24.000Z,581.8
2018-09-18T12:57:27.442Z,582.5
2018-09-18T12:58:30.857Z,582.1
2018-09-18T12:59:33.451Z,581.8
2018-09-18T13:00:35.885Z,582
2018-09-18T13:01:38.043Z,582.2
2018-09-18T13:02:40.478Z,581.8
2018-09-18T13:03:42.919Z,582.2
2018-09-18T13:04:45.351Z,582.4
2018-09-18T13:05:47.855Z,582.3
2018-09-18T13:06:51.011Z,582.6
2018-09-18T13:07:53.881Z,582.3
2018-09-18T13:08:56.354Z,582.3
2018-09-18T13:09:59.038Z,582.2
2018-09-18T13:11:01.463Z,582.6
2018-09-18T13:12:03.962Z,582.5
2018-09-18T13:13:06.481Z,582.5
2018-09-18T13:14:09.740Z,582.1
2018-09-18T13:15:12.313Z,582.7
2018-09-18T13:16:14.175Z,582.6
2018-09-18T13:17:16.205Z,582.6
2018-09-18T13:18:18.814Z,583.1
2018-09-18T13:19:21.243Z,582.8
2018-09-18T13:20:23.685Z,582.9
2018-09-18T13:21:26.160Z,582.9
2018-09-18T13:22:28.591Z,583.3
2018-09-18T13:23:31.028Z,583.3
2018-09-18T13:24:33.237Z,582.9
2018-09-18T13:25:35.674Z,583.1
2018-09-18T13:26:38.115Z,582.8
2018-09-18T13:27:40.786Z,583.4
2018-09-18T13:28:43.230Z,583.5
2018-09-18T13:29:45.664Z,583.6